sensor_id;sensor_type;location;lat;lon;timestamp;P1;durP1;ratioP1;P2;durP2;ratioP2
57113;SDS011;42994;51.606;9.988;2023-05-24T00:01:43;11.15;;;3.55;;
57113;SDS011;42994;51.606;9.988;2023-05-24T00:04:09;15.60;;;3.40;;
57113;SDS011;42994;51.606;9.988;2023-05-24T00:06:36;19.55;;;3.42;;
57113;SDS011;42994;51.606;9.988;2023-05-24T00:09:02;10.73;;;3.38;;
57113;SDS011;42994;51.606;9.988;2023-05-24T00:11:29;14.77;;;4.05;;
57113;SDS011;42994;51.606;9.988;2023-05-24T00:13:58;21.45;;;3.90;;
57113;SDS011;42994;51.606;9.988;2023-05-24T00:16:25;13.98;;;3.53;;
57113;SDS011;42994;51.606;9.988;2023-05-24T00:18:53;16.08;;;3.22;;
57113;SDS011;42994;51.606;9.988;2023-05-24T00:21:20;16.20;;;3.45;;
57113;SDS011;42994;51.606;9.988;2023-05-24T00:23:46;18.35;;;4.60;;
57113;SDS011;42994;51.606;9.988;2023-05-24T00:26:16;18.85;;;3.95;;
57113;SDS011;42994;51.606;9.988;2023-05-24T00:28:50;25.30;;;4.50;;
57113;SDS011;42994;51.606;9.988;2023-05-24T00:31:17;13.85;;;3.35;;
57113;SDS011;42994;51.606;9.988;2023-05-24T00:33:43;16.02;;;3.88;;
57113;SDS011;42994;51.606;9.988;2023-05-24T00:36:11;21.23;;;4.07;;
57113;SDS011;42994;51.606;9.988;2023-05-24T00:38:38;21.00;;;3.63;;
57113;SDS011;42994;51.606;9.988;2023-05-24T00:41:05;12.30;;;3.28;;
57113;SDS011;42994;51.606;9.988;2023-05-24T00:43:32;23.73;;;3.40;;
57113;SDS011;42994;51.606;9.988;2023-05-24T00:46:08;19.42;;;3.83;;
57113;SDS011;42994;51.606;9.988;2023-05-24T00:48:40;11.38;;;3.42;;
57113;SDS011;42994;51.606;9.988;2023-05-24T00:51:07;15.63;;;4.13;;
57113;SDS011;42994;51.606;9.988;2023-05-24T00:53:36;23.67;;;4.05;;
57113;SDS011;42994;51.606;9.988;2023-05-24T00:56:03;11.88;;;3.38;;
57113;SDS011;42994;51.606;9.988;2023-05-24T00:58:31;15.80;;;3.33;;
57113;SDS011;42994;51.606;9.988;2023-05-24T01:01:00;19.38;;;3.20;;
57113;SDS011;42994;51.606;9.988;2023-05-24T01:03:27;15.80;;;3.47;;
57113;SDS011;42994;51.606;9.988;2023-05-24T01:05:54;18.30;;;4.68;;
57113;SDS011;42994;51.606;9.988;2023-05-24T01:08:25;25.08;;;4.97;;
57113;SDS011;42994;51.606;9.988;2023-05-24T01:11:10;16.00;;;3.40;;
57113;SDS011;42994;51.606;9.988;2023-05-24T01:13:47;14.63;;;3.53;;
57113;SDS011;42994;51.606;9.988;2023-05-24T01:16:21;14.70;;;3.92;;
57113;SDS011;42994;51.606;9.988;2023-05-24T01:18:51;22.73;;;4.28;;
57113;SDS011;42994;51.606;9.988;2023-05-24T01:21:24;13.30;;;3.58;;
57113;SDS011;42994;51.606;9.988;2023-05-24T01:24:09;15.65;;;4.13;;
57113;SDS011;42994;51.606;9.988;2023-05-24T01:29:33;18.83;;;4.57;;
57113;SDS011;42994;51.606;9.988;2023-05-24T01:32:01;13.80;;;3.67;;
57113;SDS011;42994;51.606;9.988;2023-05-24T01:34:31;18.17;;;4.07;;
57113;SDS011;42994;51.606;9.988;2023-05-24T01:36:58;21.48;;;4.25;;
57113;SDS011;42994;51.606;9.988;2023-05-24T01:39:26;23.05;;;4.38;;
57113;SDS011;42994;51.606;9.988;2023-05-24T01:42:01;17.95;;;4.60;;
57113;SDS011;42994;51.606;9.988;2023-05-24T01:44:35;17.92;;;3.53;;
57113;SDS011;42994;51.606;9.988;2023-05-24T01:47:10;11.00;;;3.28;;
57113;SDS011;42994;51.606;9.988;2023-05-24T01:49:52;23.00;;;4.40;;
57113;SDS011;42994;51.606;9.988;2023-05-24T01:52:23;23.73;;;4.25;;
57113;SDS011;42994;51.606;9.988;2023-05-24T01:54:54;18.77;;;4.15;;
57113;SDS011;42994;51.606;9.988;2023-05-24T01:57:23;18.58;;;5.53;;
57113;SDS011;42994;51.606;9.988;2023-05-24T01:59:52;17.55;;;3.58;;
57113;SDS011;42994;51.606;9.988;2023-05-24T02:02:20;25.05;;;4.65;;
57113;SDS011;42994;51.606;9.988;2023-05-24T02:04:46;24.95;;;4.18;;
57113;SDS011;42994;51.606;9.988;2023-05-24T02:07:14;15.75;;;4.10;;
57113;SDS011;42994;51.606;9.988;2023-05-24T02:09:42;26.13;;;5.38;;
57113;SDS011;42994;51.606;9.988;2023-05-24T02:12:09;15.68;;;3.92;;
57113;SDS011;42994;51.606;9.988;2023-05-24T02:14:39;17.73;;;4.30;;
57113;SDS011;42994;51.606;9.988;2023-05-24T02:17:06;21.50;;;4.07;;
57113;SDS011;42994;51.606;9.988;2023-05-24T02:19:33;18.98;;;4.30;;
57113;SDS011;42994;51.606;9.988;2023-05-24T02:22:01;22.65;;;4.95;;
57113;SDS011;42994;51.606;9.988;2023-05-24T02:24:28;19.48;;;4.50;;
57113;SDS011;42994;51.606;9.988;2023-05-24T02:26:55;15.68;;;5.25;;
57113;SDS011;42994;51.606;9.988;2023-05-24T02:29:22;20.90;;;4.35;;
57113;SDS011;42994;51.606;9.988;2023-05-24T02:31:50;23.13;;;5.28;;
57113;SDS011;42994;51.606;9.988;2023-05-24T02:34:20;24.57;;;5.10;;
57113;SDS011;42994;51.606;9.988;2023-05-24T02:36:48;15.27;;;3.78;;
57113;SDS011;42994;51.606;9.988;2023-05-24T02:39:15;24.90;;;5.28;;
57113;SDS011;42994;51.606;9.988;2023-05-24T02:41:41;20.73;;;4.05;;
57113;SDS011;42994;51.606;9.988;2023-05-24T02:44:08;21.45;;;4.53;;
57113;SDS011;42994;51.606;9.988;2023-05-24T02:46:35;18.40;;;4.35;;
57113;SDS011;42994;51.606;9.988;2023-05-24T02:49:03;12.88;;;3.97;;
57113;SDS011;42994;51.606;9.988;2023-05-24T02:51:33;14.18;;;3.10;;
57113;SDS011;42994;51.606;9.988;2023-05-24T02:54:01;19.63;;;4.90;;
57113;SDS011;42994;51.606;9.988;2023-05-24T02:56:28;24.35;;;5.28;;
57113;SDS011;42994;51.606;9.988;2023-05-24T02:58:55;12.68;;;3.85;;
57113;SDS011;42994;51.606;9.988;2023-05-24T03:01:21;19.98;;;4.55;;
57113;SDS011;42994;51.606;9.988;2023-05-24T03:03:51;22.55;;;6.85;;
57113;SDS011;42994;51.606;9.988;2023-05-24T03:06:19;24.83;;;5.32;;
57113;SDS011;42994;51.606;9.988;2023-05-24T03:08:46;16.23;;;3.80;;
57113;SDS011;42994;51.606;9.988;2023-05-24T03:11:13;25.40;;;4.63;;
57113;SDS011;42994;51.606;9.988;2023-05-24T03:13:40;26.23;;;4.25;;
57113;SDS011;42994;51.606;9.988;2023-05-24T03:16:09;24.02;;;5.05;;
57113;SDS011;42994;51.606;9.988;2023-05-24T03:18:36;33.85;;;5.70;;
57113;SDS011;42994;51.606;9.988;2023-05-24T03:21:03;21.05;;;5.32;;
57113;SDS011;42994;51.606;9.988;2023-05-24T03:23:33;33.70;;;6.97;;
57113;SDS011;42994;51.606;9.988;2023-05-24T03:26:00;19.50;;;5.25;;
57113;SDS011;42994;51.606;9.988;2023-05-24T03:28:27;19.05;;;5.25;;
57113;SDS011;42994;51.606;9.988;2023-05-24T03:30:54;25.67;;;5.50;;
57113;SDS011;42994;51.606;9.988;2023-05-24T03:33:21;23.17;;;5.68;;
57113;SDS011;42994;51.606;9.988;2023-05-24T03:35:47;19.90;;;6.28;;
57113;SDS011;42994;51.606;9.988;2023-05-24T03:38:14;32.20;;;5.50;;
57113;SDS011;42994;51.606;9.988;2023-05-24T03:40:45;20.33;;;6.55;;
57113;SDS011;42994;51.606;9.988;2023-05-24T03:43:16;19.63;;;4.32;;
57113;SDS011;42994;51.606;9.988;2023-05-24T03:45:50;15.45;;;4.70;;
57113;SDS011;42994;51.606;9.988;2023-05-24T03:48:17;25.02;;;5.10;;
57113;SDS011;42994;51.606;9.988;2023-05-24T03:50:45;25.50;;;5.00;;
57113;SDS011;42994;51.606;9.988;2023-05-24T03:53:12;24.90;;;5.07;;
57113;SDS011;42994;51.606;9.988;2023-05-24T03:55:39;22.70;;;5.57;;
57113;SDS011;42994;51.606;9.988;2023-05-24T03:58:07;28.27;;;5.15;;
57113;SDS011;42994;51.606;9.988;2023-05-24T04:00:34;19.63;;;4.50;;
57113;SDS011;42994;51.606;9.988;2023-05-24T04:03:01;20.98;;;4.20;;
57113;SDS011;42994;51.606;9.988;2023-05-24T04:05:30;23.73;;;5.28;;
57113;SDS011;42994;51.606;9.988;2023-05-24T04:07:58;20.95;;;4.75;;
57113;SDS011;42994;51.606;9.988;2023-05-24T04:10:24;26.70;;;5.13;;
57113;SDS011;42994;51.606;9.988;2023-05-24T04:12:51;26.05;;;5.35;;
57113;SDS011;42994;51.606;9.988;2023-05-24T04:15:19;18.77;;;5.18;;
57113;SDS011;42994;51.606;9.988;2023-05-24T04:17:47;29.38;;;5.97;;
57113;SDS011;42994;51.606;9.988;2023-05-24T04:20:20;27.33;;;5.47;;
57113;SDS011;42994;51.606;9.988;2023-05-24T04:22:49;21.90;;;4.43;;
57113;SDS011;42994;51.606;9.988;2023-05-24T04:25:16;29.83;;;4.95;;
57113;SDS011;42994;51.606;9.988;2023-05-24T04:27:43;29.05;;;7.25;;
57113;SDS011;42994;51.606;9.988;2023-05-24T04:30:12;25.27;;;5.28;;
57113;SDS011;42994;51.606;9.988;2023-05-24T04:32:41;21.10;;;5.07;;
57113;SDS011;42994;51.606;9.988;2023-05-24T04:35:09;21.75;;;5.38;;
57113;SDS011;42994;51.606;9.988;2023-05-24T04:37:36;25.92;;;6.10;;
57113;SDS011;42994;51.606;9.988;2023-05-24T04:40:04;14.98;;;4.93;;
57113;SDS011;42994;51.606;9.988;2023-05-24T04:42:32;24.75;;;5.78;;
57113;SDS011;42994;51.606;9.988;2023-05-24T04:44:58;20.08;;;5.38;;
57113;SDS011;42994;51.606;9.988;2023-05-24T04:47:25;24.58;;;5.90;;
57113;SDS011;42994;51.606;9.988;2023-05-24T04:49:53;29.58;;;5.10;;
57113;SDS011;42994;51.606;9.988;2023-05-24T04:52:20;30.10;;;6.07;;
57113;SDS011;42994;51.606;9.988;2023-05-24T04:54:47;29.20;;;6.63;;
57113;SDS011;42994;51.606;9.988;2023-05-24T04:57:15;25.77;;;8.20;;
57113;SDS011;42994;51.606;9.988;2023-05-24T04:59:42;31.42;;;6.45;;
57113;SDS011;42994;51.606;9.988;2023-05-24T05:02:09;21.95;;;5.78;;
57113;SDS011;42994;51.606;9.988;2023-05-24T05:04:35;23.23;;;6.03;;
57113;SDS011;42994;51.606;9.988;2023-05-24T05:07:04;25.92;;;5.90;;
57113;SDS011;42994;51.606;9.988;2023-05-24T05:09:31;24.83;;;6.70;;
57113;SDS011;42994;51.606;9.988;2023-05-24T05:11:58;22.92;;;5.53;;
57113;SDS011;42994;51.606;9.988;2023-05-24T05:14:25;24.35;;;5.70;;
57113;SDS011;42994;51.606;9.988;2023-05-24T05:16:51;29.23;;;6.90;;
57113;SDS011;42994;51.606;9.988;2023-05-24T05:19:18;22.90;;;7.05;;
57113;SDS011;42994;51.606;9.988;2023-05-24T05:21:45;33.55;;;7.38;;
57113;SDS011;42994;51.606;9.988;2023-05-24T05:24:13;31.65;;;6.78;;
57113;SDS011;42994;51.606;9.988;2023-05-24T05:26:40;38.65;;;6.78;;
57113;SDS011;42994;51.606;9.988;2023-05-24T05:29:07;25.60;;;5.93;;
57113;SDS011;42994;51.606;9.988;2023-05-24T05:31:34;31.77;;;6.90;;
57113;SDS011;42994;51.606;9.988;2023-05-24T05:34:00;26.02;;;6.78;;
57113;SDS011;42994;51.606;9.988;2023-05-24T05:36:27;28.73;;;6.22;;
57113;SDS011;42994;51.606;9.988;2023-05-24T05:38:54;30.50;;;6.85;;
57113;SDS011;42994;51.606;9.988;2023-05-24T05:41:22;22.05;;;6.63;;
57113;SDS011;42994;51.606;9.988;2023-05-24T05:43:49;23.75;;;6.18;;
57113;SDS011;42994;51.606;9.988;2023-05-24T05:46:28;24.88;;;6.10;;
57113;SDS011;42994;51.606;9.988;2023-05-24T05:48:55;26.90;;;7.90;;
57113;SDS011;42994;51.606;9.988;2023-05-24T05:51:21;24.60;;;6.68;;
57113;SDS011;42994;51.606;9.988;2023-05-24T05:53:48;31.60;;;6.38;;
57113;SDS011;42994;51.606;9.988;2023-05-24T05:56:15;26.98;;;6.40;;
57113;SDS011;42994;51.606;9.988;2023-05-24T05:58:43;41.47;;;6.97;;
57113;SDS011;42994;51.606;9.988;2023-05-24T06:01:10;27.65;;;7.03;;
57113;SDS011;42994;51.606;9.988;2023-05-24T06:03:37;30.70;;;7.22;;
57113;SDS011;42994;51.606;9.988;2023-05-24T06:06:04;36.30;;;8.38;;
57113;SDS011;42994;51.606;9.988;2023-05-24T06:08:31;34.05;;;7.50;;
57113;SDS011;42994;51.606;9.988;2023-05-24T06:10:59;35.60;;;6.35;;
57113;SDS011;42994;51.606;9.988;2023-05-24T06:13:26;31.15;;;6.00;;
57113;SDS011;42994;51.606;9.988;2023-05-24T06:15:54;34.38;;;9.38;;
57113;SDS011;42994;51.606;9.988;2023-05-24T06:18:21;34.72;;;6.85;;
57113;SDS011;42994;51.606;9.988;2023-05-24T06:20:47;21.75;;;7.10;;
57113;SDS011;42994;51.606;9.988;2023-05-24T06:23:14;25.67;;;7.30;;
57113;SDS011;42994;51.606;9.988;2023-05-24T06:25:41;23.63;;;7.05;;
57113;SDS011;42994;51.606;9.988;2023-05-24T06:28:08;29.40;;;8.35;;
57113;SDS011;42994;51.606;9.988;2023-05-24T06:30:35;21.42;;;7.05;;
57113;SDS011;42994;51.606;9.988;2023-05-24T06:33:03;26.13;;;7.10;;
57113;SDS011;42994;51.606;9.988;2023-05-24T06:35:30;31.05;;;8.05;;
57113;SDS011;42994;51.606;9.988;2023-05-24T06:37:56;27.00;;;7.40;;
57113;SDS011;42994;51.606;9.988;2023-05-24T06:40:23;28.17;;;7.53;;
57113;SDS011;42994;51.606;9.988;2023-05-24T06:42:50;36.88;;;6.53;;
57113;SDS011;42994;51.606;9.988;2023-05-24T06:45:16;36.00;;;6.88;;
57113;SDS011;42994;51.606;9.988;2023-05-24T06:47:43;30.40;;;7.88;;
57113;SDS011;42994;51.606;9.988;2023-05-24T06:50:11;26.58;;;6.53;;
57113;SDS011;42994;51.606;9.988;2023-05-24T06:52:38;32.42;;;7.65;;
57113;SDS011;42994;51.606;9.988;2023-05-24T06:55:05;29.08;;;7.93;;
57113;SDS011;42994;51.606;9.988;2023-05-24T06:57:32;20.48;;;6.38;;
57113;SDS011;42994;51.606;9.988;2023-05-24T06:59:59;24.92;;;6.82;;
57113;SDS011;42994;51.606;9.988;2023-05-24T07:02:25;31.67;;;7.60;;
57113;SDS011;42994;51.606;9.988;2023-05-24T07:04:53;29.52;;;7.35;;
57113;SDS011;42994;51.606;9.988;2023-05-24T07:07:21;31.88;;;6.25;;
57113;SDS011;42994;51.606;9.988;2023-05-24T07:09:47;28.25;;;6.57;;
57113;SDS011;42994;51.606;9.988;2023-05-24T07:12:14;28.15;;;7.85;;
57113;SDS011;42994;51.606;9.988;2023-05-24T07:14:40;27.85;;;6.72;;
57113;SDS011;42994;51.606;9.988;2023-05-24T07:17:07;31.15;;;6.60;;
57113;SDS011;42994;51.606;9.988;2023-05-24T07:19:34;34.00;;;7.80;;
57113;SDS011;42994;51.606;9.988;2023-05-24T07:22:01;32.45;;;7.25;;
57113;SDS011;42994;51.606;9.988;2023-05-24T07:24:29;25.20;;;8.30;;
57113;SDS011;42994;51.606;9.988;2023-05-24T07:26:55;26.10;;;6.88;;
57113;SDS011;42994;51.606;9.988;2023-05-24T07:29:22;27.85;;;6.72;;
57113;SDS011;42994;51.606;9.988;2023-05-24T07:31:50;36.58;;;6.53;;
57113;SDS011;42994;51.606;9.988;2023-05-24T07:34:17;34.92;;;6.65;;
57113;SDS011;42994;51.606;9.988;2023-05-24T07:36:44;25.58;;;6.82;;
57113;SDS011;42994;51.606;9.988;2023-05-24T07:39:12;31.83;;;8.63;;
57113;SDS011;42994;51.606;9.988;2023-05-24T07:41:41;33.38;;;7.35;;
57113;SDS011;42994;51.606;9.988;2023-05-24T07:44:08;26.35;;;7.47;;
57113;SDS011;42994;51.606;9.988;2023-05-24T07:46:36;25.25;;;7.03;;
57113;SDS011;42994;51.606;9.988;2023-05-24T07:49:02;38.03;;;6.93;;
57113;SDS011;42994;51.606;9.988;2023-05-24T07:51:29;30.48;;;6.50;;
57113;SDS011;42994;51.606;9.988;2023-05-24T07:53:56;27.15;;;6.53;;
57113;SDS011;42994;51.606;9.988;2023-05-24T07:56:23;31.70;;;6.57;;
57113;SDS011;42994;51.606;9.988;2023-05-24T07:58:51;32.03;;;7.05;;
57113;SDS011;42994;51.606;9.988;2023-05-24T08:01:23;24.42;;;7.78;;
57113;SDS011;42994;51.606;9.988;2023-05-24T08:03:49;32.13;;;7.85;;
57113;SDS011;42994;51.606;9.988;2023-05-24T08:06:16;16.70;;;5.60;;
57113;SDS011;42994;51.606;9.988;2023-05-24T08:08:43;23.45;;;6.38;;
57113;SDS011;42994;51.606;9.988;2023-05-24T08:11:11;22.27;;;6.70;;
57113;SDS011;42994;51.606;9.988;2023-05-24T08:13:38;24.23;;;5.70;;
57113;SDS011;42994;51.606;9.988;2023-05-24T08:16:06;22.50;;;5.55;;
57113;SDS011;42994;51.606;9.988;2023-05-24T08:18:33;19.80;;;5.70;;
57113;SDS011;42994;51.606;9.988;2023-05-24T08:20:59;33.08;;;6.65;;
57113;SDS011;42994;51.606;9.988;2023-05-24T08:23:26;25.33;;;6.38;;
57113;SDS011;42994;51.606;9.988;2023-05-24T08:25:54;27.33;;;6.43;;
57113;SDS011;42994;51.606;9.988;2023-05-24T08:28:20;27.83;;;6.10;;
57113;SDS011;42994;51.606;9.988;2023-05-24T08:30:47;20.98;;;6.43;;
57113;SDS011;42994;51.606;9.988;2023-05-24T08:33:15;25.88;;;6.50;;
57113;SDS011;42994;51.606;9.988;2023-05-24T08:35:42;24.80;;;5.45;;
57113;SDS011;42994;51.606;9.988;2023-05-24T08:38:08;26.92;;;5.13;;
57113;SDS011;42994;51.606;9.988;2023-05-24T08:40:35;19.73;;;4.95;;
57113;SDS011;42994;51.606;9.988;2023-05-24T08:43:02;17.85;;;5.53;;
57113;SDS011;42994;51.606;9.988;2023-05-24T08:45:29;17.73;;;4.47;;
57113;SDS011;42994;51.606;9.988;2023-05-24T08:47:56;14.43;;;4.07;;
57113;SDS011;42994;51.606;9.988;2023-05-24T08:50:24;26.33;;;4.50;;
57113;SDS011;42994;51.606;9.988;2023-05-24T08:52:51;22.58;;;4.75;;
57113;SDS011;42994;51.606;9.988;2023-05-24T08:55:19;17.50;;;5.20;;
57113;SDS011;42994;51.606;9.988;2023-05-24T08:57:46;15.05;;;4.78;;
57113;SDS011;42994;51.606;9.988;2023-05-24T09:00:14;19.88;;;4.82;;
57113;SDS011;42994;51.606;9.988;2023-05-24T09:02:42;16.15;;;5.57;;
57113;SDS011;42994;51.606;9.988;2023-05-24T09:05:10;13.07;;;3.60;;
57113;SDS011;42994;51.606;9.988;2023-05-24T09:07:39;19.95;;;4.88;;
57113;SDS011;42994;51.606;9.988;2023-05-24T09:10:08;18.75;;;4.63;;
57113;SDS011;42994;51.606;9.988;2023-05-24T09:12:36;27.33;;;5.15;;
57113;SDS011;42994;51.606;9.988;2023-05-24T09:15:04;13.40;;;4.32;;
57113;SDS011;42994;51.606;9.988;2023-05-24T09:17:33;17.98;;;4.95;;
57113;SDS011;42994;51.606;9.988;2023-05-24T09:20:00;18.27;;;4.65;;
57113;SDS011;42994;51.606;9.988;2023-05-24T09:22:30;16.77;;;3.78;;
57113;SDS011;42994;51.606;9.988;2023-05-24T09:25:00;18.83;;;4.07;;
57113;SDS011;42994;51.606;9.988;2023-05-24T09:27:28;16.08;;;4.03;;
57113;SDS011;42994;51.606;9.988;2023-05-24T09:29:58;17.58;;;4.25;;
57113;SDS011;42994;51.606;9.988;2023-05-24T09:32:25;20.65;;;4.63;;
57113;SDS011;42994;51.606;9.988;2023-05-24T09:34:53;26.55;;;5.57;;
57113;SDS011;42994;51.606;9.988;2023-05-24T09:37:23;25.73;;;5.20;;
57113;SDS011;42994;51.606;9.988;2023-05-24T09:39:52;24.63;;;5.13;;
57113;SDS011;42994;51.606;9.988;2023-05-24T09:42:21;15.23;;;4.20;;
57113;SDS011;42994;51.606;9.988;2023-05-24T09:44:57;23.00;;;5.60;;
57113;SDS011;42994;51.606;9.988;2023-05-24T09:47:26;17.15;;;4.18;;
57113;SDS011;42994;51.606;9.988;2023-05-24T09:49:54;15.80;;;4.68;;
57113;SDS011;42994;51.606;9.988;2023-05-24T09:52:20;13.50;;;3.80;;
57113;SDS011;42994;51.606;9.988;2023-05-24T09:54:47;17.50;;;4.07;;
57113;SDS011;42994;51.606;9.988;2023-05-24T09:57:14;16.55;;;4.05;;
57113;SDS011;42994;51.606;9.988;2023-05-24T09:59:42;14.75;;;3.28;;
57113;SDS011;42994;51.606;9.988;2023-05-24T10:02:09;16.02;;;4.13;;
57113;SDS011;42994;51.606;9.988;2023-05-24T10:04:37;15.25;;;4.45;;
57113;SDS011;42994;51.606;9.988;2023-05-24T10:07:05;17.33;;;3.85;;
57113;SDS011;42994;51.606;9.988;2023-05-24T10:09:33;20.38;;;3.97;;
57113;SDS011;42994;51.606;9.988;2023-05-24T10:12:00;28.83;;;3.83;;
57113;SDS011;42994;51.606;9.988;2023-05-24T10:14:29;17.90;;;5.05;;
57113;SDS011;42994;51.606;9.988;2023-05-24T10:17:00;19.73;;;4.97;;
57113;SDS011;42994;51.606;9.988;2023-05-24T10:19:27;17.27;;;4.05;;
57113;SDS011;42994;51.606;9.988;2023-05-24T10:21:54;12.25;;;3.55;;
57113;SDS011;42994;51.606;9.988;2023-05-24T10:24:23;17.02;;;3.97;;
57113;SDS011;42994;51.606;9.988;2023-05-24T10:26:53;14.13;;;5.47;;
57113;SDS011;42994;51.606;9.988;2023-05-24T10:29:25;18.65;;;4.53;;
57113;SDS011;42994;51.606;9.988;2023-05-24T10:32:00;14.85;;;3.55;;
57113;SDS011;42994;51.606;9.988;2023-05-24T10:34:28;18.17;;;3.97;;
57113;SDS011;42994;51.606;9.988;2023-05-24T10:36:56;16.90;;;3.40;;
57113;SDS011;42994;51.606;9.988;2023-05-24T10:39:24;11.70;;;3.50;;
57113;SDS011;42994;51.606;9.988;2023-05-24T10:41:50;15.90;;;3.67;;
57113;SDS011;42994;51.606;9.988;2023-05-24T10:44:20;16.17;;;3.10;;
57113;SDS011;42994;51.606;9.988;2023-05-24T10:47:02;16.73;;;3.58;;
57113;SDS011;42994;51.606;9.988;2023-05-24T10:49:38;13.20;;;4.13;;
57113;SDS011;42994;51.606;9.988;2023-05-24T10:52:15;17.92;;;4.40;;
57113;SDS011;42994;51.606;9.988;2023-05-24T10:54:48;12.32;;;3.80;;
57113;SDS011;42994;51.606;9.988;2023-05-24T10:57:28;13.48;;;3.55;;
57113;SDS011;42994;51.606;9.988;2023-05-24T10:59:56;14.73;;;4.50;;
57113;SDS011;42994;51.606;9.988;2023-05-24T11:02:24;17.48;;;3.63;;
57113;SDS011;42994;51.606;9.988;2023-05-24T11:04:53;13.82;;;3.42;;
57113;SDS011;42994;51.606;9.988;2023-05-24T11:07:20;15.73;;;4.53;;
57113;SDS011;42994;51.606;9.988;2023-05-24T11:09:47;13.35;;;3.60;;
57113;SDS011;42994;51.606;9.988;2023-05-24T11:12:20;11.50;;;3.28;;
57113;SDS011;42994;51.606;9.988;2023-05-24T11:14:47;13.38;;;3.08;;
57113;SDS011;42994;51.606;9.988;2023-05-24T11:17:15;15.30;;;4.38;;
57113;SDS011;42994;51.606;9.988;2023-05-24T11:19:48;12.77;;;3.38;;
57113;SDS011;42994;51.606;9.988;2023-05-24T11:22:16;13.23;;;3.25;;
57113;SDS011;42994;51.606;9.988;2023-05-24T11:24:45;14.30;;;4.22;;
57113;SDS011;42994;51.606;9.988;2023-05-24T11:27:13;27.92;;;4.32;;
57113;SDS011;42994;51.606;9.988;2023-05-24T11:29:40;18.10;;;6.25;;
57113;SDS011;42994;51.606;9.988;2023-05-24T11:32:09;10.25;;;3.30;;
57113;SDS011;42994;51.606;9.988;2023-05-24T11:34:39;15.40;;;3.70;;
57113;SDS011;42994;51.606;9.988;2023-05-24T11:37:10;16.88;;;3.90;;
57113;SDS011;42994;51.606;9.988;2023-05-24T11:39:39;13.80;;;3.15;;
57113;SDS011;42994;51.606;9.988;2023-05-24T11:42:06;17.98;;;3.67;;
57113;SDS011;42994;51.606;9.988;2023-05-24T11:44:34;10.95;;;3.88;;
57113;SDS011;42994;51.606;9.988;2023-05-24T11:47:03;16.63;;;3.92;;
57113;SDS011;42994;51.606;9.988;2023-05-24T11:49:31;16.77;;;3.90;;
57113;SDS011;42994;51.606;9.988;2023-05-24T11:51:59;14.48;;;3.33;;
57113;SDS011;42994;51.606;9.988;2023-05-24T11:54:28;10.38;;;3.10;;
57113;SDS011;42994;51.606;9.988;2023-05-24T11:56:56;13.45;;;3.25;;
57113;SDS011;42994;51.606;9.988;2023-05-24T11:59:23;18.08;;;4.40;;
57113;SDS011;42994;51.606;9.988;2023-05-24T12:01:55;16.38;;;5.10;;
57113;SDS011;42994;51.606;9.988;2023-05-24T12:04:24;16.70;;;3.55;;
57113;SDS011;42994;51.606;9.988;2023-05-24T12:06:51;16.88;;;3.60;;
57113;SDS011;42994;51.606;9.988;2023-05-24T12:09:19;8.73;;;2.92;;
57113;SDS011;42994;51.606;9.988;2023-05-24T12:11:48;9.95;;;2.92;;
57113;SDS011;42994;51.606;9.988;2023-05-24T12:14:16;11.05;;;3.50;;
57113;SDS011;42994;51.606;9.988;2023-05-24T12:16:44;14.40;;;3.13;;
57113;SDS011;42994;51.606;9.988;2023-05-24T12:19:12;9.15;;;2.20;;
57113;SDS011;42994;51.606;9.988;2023-05-24T12:21:41;6.43;;;2.20;;
57113;SDS011;42994;51.606;9.988;2023-05-24T12:24:08;6.32;;;1.90;;
57113;SDS011;42994;51.606;9.988;2023-05-24T12:26:36;10.30;;;2.80;;
57113;SDS011;42994;51.606;9.988;2023-05-24T12:29:04;7.10;;;2.42;;
57113;SDS011;42994;51.606;9.988;2023-05-24T12:31:32;9.15;;;1.95;;
57113;SDS011;42994;51.606;9.988;2023-05-24T12:33:59;8.95;;;2.53;;
57113;SDS011;42994;51.606;9.988;2023-05-24T12:36:26;8.10;;;2.20;;
57113;SDS011;42994;51.606;9.988;2023-05-24T12:38:55;8.63;;;2.47;;
57113;SDS011;42994;51.606;9.988;2023-05-24T12:41:22;11.05;;;2.30;;
57113;SDS011;42994;51.606;9.988;2023-05-24T12:43:49;5.47;;;2.33;;
57113;SDS011;42994;51.606;9.988;2023-05-24T12:46:18;8.23;;;2.80;;
57113;SDS011;42994;51.606;9.988;2023-05-24T12:48:45;7.82;;;1.90;;
57113;SDS011;42994;51.606;9.988;2023-05-24T12:51:12;9.13;;;2.67;;
57113;SDS011;42994;51.606;9.988;2023-05-24T12:53:38;6.95;;;1.98;;
57113;SDS011;42994;51.606;9.988;2023-05-24T12:56:05;5.47;;;1.90;;
57113;SDS011;42994;51.606;9.988;2023-05-24T12:58:33;5.35;;;1.50;;
57113;SDS011;42994;51.606;9.988;2023-05-24T13:00:59;9.50;;;2.30;;
57113;SDS011;42994;51.606;9.988;2023-05-24T13:03:27;8.30;;;1.88;;
57113;SDS011;42994;51.606;9.988;2023-05-24T13:05:54;7.50;;;1.80;;
57113;SDS011;42994;51.606;9.988;2023-05-24T13:08:20;3.72;;;1.60;;
57113;SDS011;42994;51.606;9.988;2023-05-24T13:10:47;8.77;;;1.90;;
57113;SDS011;42994;51.606;9.988;2023-05-24T13:13:14;6.10;;;1.52;;
57113;SDS011;42994;51.606;9.988;2023-05-24T13:15:41;6.28;;;1.40;;
57113;SDS011;42994;51.606;9.988;2023-05-24T13:18:08;4.00;;;1.30;;
57113;SDS011;42994;51.606;9.988;2023-05-24T13:20:36;6.15;;;1.83;;
57113;SDS011;42994;51.606;9.988;2023-05-24T13:23:03;4.35;;;1.63;;
57113;SDS011;42994;51.606;9.988;2023-05-24T13:25:30;4.25;;;1.52;;
57113;SDS011;42994;51.606;9.988;2023-05-24T13:27:57;3.85;;;1.80;;
57113;SDS011;42994;51.606;9.988;2023-05-24T13:30:24;4.70;;;1.70;;
57113;SDS011;42994;51.606;9.988;2023-05-24T13:32:52;5.30;;;1.55;;
57113;SDS011;42994;51.606;9.988;2023-05-24T13:35:19;3.25;;;1.55;;
57113;SDS011;42994;51.606;9.988;2023-05-24T13:37:47;6.03;;;1.42;;
57113;SDS011;42994;51.606;9.988;2023-05-24T13:40:15;3.22;;;1.33;;
57113;SDS011;42994;51.606;9.988;2023-05-24T13:42:42;4.93;;;1.98;;
57113;SDS011;42994;51.606;9.988;2023-05-24T13:45:08;5.25;;;1.48;;
57113;SDS011;42994;51.606;9.988;2023-05-24T13:47:36;3.28;;;1.58;;
57113;SDS011;42994;51.606;9.988;2023-05-24T13:50:04;4.50;;;2.30;;
57113;SDS011;42994;51.606;9.988;2023-05-24T13:52:31;7.00;;;2.15;;
57113;SDS011;42994;51.606;9.988;2023-05-24T13:55:01;5.95;;;1.73;;
57113;SDS011;42994;51.606;9.988;2023-05-24T13:57:28;4.10;;;1.75;;
57113;SDS011;42994;51.606;9.988;2023-05-24T13:59:56;4.32;;;1.80;;
57113;SDS011;42994;51.606;9.988;2023-05-24T14:02:23;6.50;;;2.03;;
57113;SDS011;42994;51.606;9.988;2023-05-24T14:04:50;6.88;;;2.42;;
57113;SDS011;42994;51.606;9.988;2023-05-24T14:07:17;7.70;;;1.75;;
57113;SDS011;42994;51.606;9.988;2023-05-24T14:09:44;10.02;;;2.25;;
57113;SDS011;42994;51.606;9.988;2023-05-24T14:12:12;5.30;;;2.33;;
57113;SDS011;42994;51.606;9.988;2023-05-24T14:14:39;4.28;;;2.00;;
57113;SDS011;42994;51.606;9.988;2023-05-24T14:17:06;4.95;;;1.83;;
57113;SDS011;42994;51.606;9.988;2023-05-24T14:19:32;8.25;;;1.77;;
57113;SDS011;42994;51.606;9.988;2023-05-24T14:21:59;5.40;;;2.33;;
57113;SDS011;42994;51.606;9.988;2023-05-24T14:24:26;7.28;;;1.92;;
57113;SDS011;42994;51.606;9.988;2023-05-24T14:26:52;5.85;;;2.20;;
57113;SDS011;42994;51.606;9.988;2023-05-24T14:29:20;4.65;;;1.88;;
57113;SDS011;42994;51.606;9.988;2023-05-24T14:31:47;5.60;;;2.13;;
57113;SDS011;42994;51.606;9.988;2023-05-24T14:34:14;5.68;;;1.70;;
57113;SDS011;42994;51.606;9.988;2023-05-24T14:36:41;7.88;;;2.20;;
57113;SDS011;42994;51.606;9.988;2023-05-24T14:39:09;7.35;;;2.20;;
57113;SDS011;42994;51.606;9.988;2023-05-24T14:41:36;8.57;;;2.88;;
57113;SDS011;42994;51.606;9.988;2023-05-24T14:44:02;4.47;;;1.88;;